Reklama

Seznam meteostanic a jejich METAR

Vyhledat místa podle abecedy:
A B C D E F G H I J K L M N O P Q R S T U V W X Y Z

Filtrovat:

ID stanice:
a/nebo
Název místa (fulltext):
 
Místo (ID)Naposledy načteno 
Brno - Tuřany (Brno/Tu) 23.09.2018 02:00 UTC Zobrazit data
Místo: Brno - Tuřany
Teplota: 13 °C (pocitová: 10.8 °C)
Vítr: 2 m/s z(e) 200°
Počasí: déšť
Dohlednost: 30 km
Zákl. oblačnosti: 3/8 1500 m;7/8 2100 m
Vlhkost: 72%
Červená - Opava (Cervena/uL) 23.09.2018 02:00 UTC Zobrazit data
Místo: Červená - Opava
Teplota: 9 °C (pocitová: 3.9 °C)
Vítr: 4 m/s z(e) 240°
Počasí: zataženo
Dohlednost: 35 km
Zákl. oblačnosti: 3/8 2100 m;8/8 3300 m
Vlhkost: 71%
České Budějovice (C.Budej/po) 23.09.2018 02:00 UTC Zobrazit data
Místo: České Budějovice
Teplota: 12 °C (pocitová: 9.5 °C)
Vítr: 2 m/s z(e) 220°
Počasí: zataženo
Dohlednost: 35 km
Zákl. oblačnosti: 3/8 1320 m;8/8 1500 m
Vlhkost: 72%
Cheb (Cheb) 23.09.2018 02:00 UTC Zobrazit data
Místo: Cheb
Teplota: 11 °C (pocitová: 8.2 °C)
Vítr: 2 m/s z(e) 0°
Počasí: zataženo
Dohlednost: 35 km
Zákl. oblačnosti: 8/8 1500 m
Vlhkost: 67%
Chotusice - Čáslav (Caslav) 23.09.2018 02:00 UTC Zobrazit data
Místo: Chotusice - Čáslav
Teplota: 12 °C (pocitová: 9.5 °C)
Vítr: 2 m/s z(e) 210°
Počasí: déšť
Dohlednost: 20 km
Zákl. oblačnosti: 5/8 1440 m;8/8 1800 m
Vlhkost: 72%
Churáňov (Churanov) 23.09.2018 02:00 UTC Zobrazit data
Místo: Churáňov
Teplota: 6 °C (pocitová: -0.2 °C)
Vítr: 4 m/s z(e) 240°
Počasí: skoro zataženo
Dohlednost: 30 km
Zákl. oblačnosti: 1/8 330 m;6/8 1050 m
Vlhkost: 87%
Doksany - Litoměřice (Doksany) 23.09.2018 02:00 UTC Zobrazit data
Místo: Doksany - Litoměřice
Teplota: 13 °C (pocitová: 10 °C)
Vítr: 3 m/s z(e) 250°
Počasí: zataženo
Dohlednost: 35 km
Zákl. oblačnosti: 1/8 1800 m;8/8 3000 m
Vlhkost: 67%
Dukovany (Dukovany) 23.09.2018 02:00 UTC Zobrazit data
Místo: Dukovany
Teplota: 11 °C (pocitová: 9.2 °C)
Vítr: 1 m/s z(e) 270°
Počasí: zataženo
Dohlednost: 30 km
Zákl. oblačnosti: 8/8 1800 m
Vlhkost: 77%
Holešov (Holesov) 23.09.2018 02:00 UTC Zobrazit data
Místo: Holešov
Teplota: 12 °C (pocitová: 8 °C)
Vítr: 4 m/s z(e) 170°
Počasí: zataženo
Dohlednost: 35 km
Zákl. oblačnosti: 8/8 1800 m
Vlhkost: 82%
Kadaň - Tušimice (Tusimice) 23.09.2018 02:00 UTC Zobrazit data
Místo: Kadaň - Tušimice
Teplota: 12 °C (pocitová: 8.7 °C)
Vítr: 3 m/s z(e) 240°
Počasí: zataženo
Dohlednost: 35 km
Zákl. oblačnosti: 4/8 2100 m;8/8 2700 m
Vlhkost: 72%
Karlovy Vary (K.Vary) 23.09.2018 02:00 UTC Zobrazit data
Místo: Karlovy Vary
Teplota: 9 °C (pocitová: 5.6 °C)
Vítr: 2 m/s z(e) 220°
Počasí: déšť
Dohlednost: 12 km
Zákl. oblačnosti: 8/8 1290 m
Vlhkost: 82%
Kocelovice (Kocelovice) 23.09.2018 02:00 UTC Zobrazit data
Místo: Kocelovice
Teplota: 11 °C (pocitová: 7.3 °C)
Vítr: 3 m/s z(e) 240°
Počasí: zataženo
Dohlednost: 35 km
Zákl. oblačnosti: 8/8 1500 m
Vlhkost: 72%
Kopisty (Kopisty) 22.09.2018 21:00 UTC Zobrazit data
Místo: Kopisty
Teplota: 14 °C (pocitová: 12.1 °C)
Vítr: 2 m/s z(e) 270°
Počasí: zataženo
Dohlednost: 35 km
Zákl. oblačnosti: 8/8 3900 m
Vlhkost: 51%
Kostelní Myslová (K.Myslova) 23.09.2018 02:00 UTC Zobrazit data
Místo: Kostelní Myslová
Teplota: 10 °C (pocitová: 6.9 °C)
Vítr: 2 m/s z(e) 190°
Počasí: zataženo
Dohlednost: 35 km
Zákl. oblačnosti: 8/8 1800 m
Vlhkost: 76%
Křešín - Kramolín (Kramolin) 23.09.2018 02:00 UTC Zobrazit data
Místo: Křešín - Kramolín
Teplota: 10 °C (pocitová: 6.9 °C)
Vítr: 2 m/s z(e) 220°
Počasí: zataženo
Dohlednost: 35 km
Zákl. oblačnosti: 1/8 1500 m;8/8 2400 m
Vlhkost: 76%
Kuchařovice - Znojmo (Kucharovic) 23.09.2018 02:00 UTC Zobrazit data
Místo: Kuchařovice - Znojmo
Teplota: 12 °C (pocitová: 9.5 °C)
Vítr: 2 m/s z(e) 290°
Počasí: zataženo
Dohlednost: 35 km
Zákl. oblačnosti: 2/8 1500 m;8/8 2400 m
Vlhkost: 63%
Liberec (Liberec) 23.09.2018 02:00 UTC Zobrazit data
Místo: Liberec
Teplota: 11 °C (pocitová: 6.7 °C)
Vítr: 4 m/s z(e) 230°
Počasí: zataženo
Dohlednost: 35 km
Zákl. oblačnosti: 4/8 2100 m;8/8 2700 m
Vlhkost: 54%
Luká (Luka) 23.09.2018 02:00 UTC Zobrazit data
Místo: Luká
Teplota: 11 °C (pocitová: 6.2 °C)
Vítr: 5 m/s z(e) 250°
Počasí: zataženo
Dohlednost: 35 km
Zákl. oblačnosti: 6/8 1500 m;8/8 4800 m
Vlhkost: 58%
Lysá Hora (Lysa Hora) 23.09.2018 02:00 UTC Zobrazit data
Místo: Lysá Hora
Teplota: 4 °C (pocitová: -3.6 °C)
Vítr: 5 m/s z(e) 270°
Počasí: zataženo
Dohlednost: 35 km
Zákl. oblačnosti: 8/8 870 m
Vlhkost: 81%
Milešovka (Milesovka) 23.09.2018 02:00 UTC Zobrazit data
Místo: Milešovka
Teplota: 7 °C (pocitová: 0.2 °C)
Vítr: 6 m/s z(e) 270°
Počasí: déšť
Dohlednost: 50 km
Zákl. oblačnosti: 1/8 390 m;8/8 2700 m
Vlhkost: 93%
Mošnov (Ostrava/Mo) 23.09.2018 02:00 UTC Zobrazit data
Místo: Mošnov
Teplota: 13 °C (pocitová: 9 °C)
Vítr: 5 m/s z(e) 220°
Počasí: zataženo
Dohlednost: 20 km
Zákl. oblačnosti: 8/8 1500 m
Vlhkost: 59%
Náměšť nad Oslavou (Namest n/O) 23.09.2018 02:00 UTC Zobrazit data
Místo: Náměšť nad Oslavou
Teplota: 11 °C (pocitová: 7.3 °C)
Vítr: 3 m/s z(e) 220°
Počasí: déšť
Dohlednost: 30 km
Zákl. oblačnosti: 5/8 1500 m;8/8 2400 m
Vlhkost: 67%
Pardubice (Pardubice) 23.09.2018 02:00 UTC Zobrazit data
Místo: Pardubice
Teplota: 12 °C (pocitová: 9.5 °C)
Vítr: 2 m/s z(e) 210°
Počasí: déšť
Dohlednost: 20 km
Zákl. oblačnosti: 8/8 1500 m
Vlhkost: 72%
Pec pod Sněžkou (Pec p.Snez) 23.09.2018 02:00 UTC Zobrazit data
Místo: Pec pod Sněžkou
Teplota: 7 °C (pocitová: 3.1 °C)
Vítr: 2 m/s z(e) 210°
Počasí: déšť
Dohlednost: 35 km
Zákl. oblačnosti: 7/8 960 m;7/8 5100 m
Vlhkost: 81%
Plzeň město - Mikulka (Plzen/Miku) 23.09.2018 02:00 UTC Zobrazit data
Místo: Plzeň město - Mikulka
Teplota: 12 °C (pocitová: 8.7 °C)
Vítr: 3 m/s z(e) 240°
Počasí: zataženo
Dohlednost: 35 km
Zákl. oblačnosti: 8/8 1800 m
Vlhkost: 67%
Polom (Polom) 23.09.2018 02:00 UTC Zobrazit data
Místo: Polom
Teplota: 8 °C (pocitová: 3.3 °C)
Vítr: 3 m/s z(e) 200°
Počasí: skoro zataženo
Dohlednost: 20 km
Zákl. oblačnosti: 7/8 1200 m
Vlhkost: 71%
Praha - Karlov (Praha/Kar) 23.09.2018 02:00 UTC Zobrazit data
Místo: Praha - Karlov
Teplota: 13 °C (pocitová: 9.4 °C)
Vítr: 4 m/s z(e) 250°
Počasí: zataženo
Dohlednost: 35 km
Zákl. oblačnosti: 2/8 1800 m;8/8 2100 m
Vlhkost: 59%
Praha - Kbely (Praha/Kbe) 23.09.2018 02:00 UTC Zobrazit data
Místo: Praha - Kbely
Teplota: 13 °C (pocitová: 9.4 °C)
Vítr: 4 m/s z(e) 220°
Počasí: déšť
Dohlednost: 20 km
Zákl. oblačnosti: 8/8 1500 m
Vlhkost: 59%
Praha - Libuš (Praha/Lib) 23.09.2018 02:00 UTC Zobrazit data
Místo: Praha - Libuš
Teplota: 12 °C (pocitová: 10.4 °C)
Vítr: 1 m/s z(e) 0°
Počasí: zataženo
Dohlednost: 35 km
Zákl. oblačnosti: 8/8 1800 m
Vlhkost: 67%
Praha - Ruzyně (Praha/Ru) 23.09.2018 02:00 UTC Zobrazit data
Místo: Praha - Ruzyně
Teplota: 11 °C (pocitová: 6.7 °C)
Vítr: 4 m/s z(e) 230°
Počasí: déšť
Dohlednost: 45 km
Zákl. oblačnosti: 3/8 1800 m;8/8 3000 m
Vlhkost: 72%
Přibyslav (Pribyslav) 23.09.2018 02:00 UTC Zobrazit data
Místo: Přibyslav
Teplota: 10 °C (pocitová: 6.9 °C)
Vítr: 2 m/s z(e) 140°
Počasí: zataženo
Dohlednost: 35 km
Zákl. oblačnosti: 8/8 1380 m
Vlhkost: 76%
Přimda (Primda) 23.09.2018 02:00 UTC Zobrazit data
Místo: Přimda
Teplota: 8 °C (pocitová: 3.3 °C)
Vítr: 3 m/s z(e) 260°
Počasí: zataženo
Dohlednost: 35 km
Zákl. oblačnosti: 6/8 1500 m;8/8 3300 m
Vlhkost: 76%
Šerák (Serak) 23.09.2018 02:00 UTC Zobrazit data
Místo: Šerák
Teplota: 4 °C (pocitová: -5.2 °C)
Vítr: 9 m/s z(e) 260°
Počasí: oblačno
Dohlednost: 35 km
Zákl. oblačnosti: 1/8 2100 m;3/8 3000 m
Vlhkost: 81%
Svratouch (Svratouch) 23.09.2018 02:00 UTC Zobrazit data
Místo: Svratouch
Teplota: 7 °C (pocitová: 2 °C)
Vítr: 3 m/s z(e) 210°
Počasí: déšť
Dohlednost: 35 km
Zákl. oblačnosti: 8/8 1500 m
Vlhkost: 81%
Temelín (Temelin) 23.09.2018 02:00 UTC Zobrazit data
Místo: Temelín
Teplota: 10 °C (pocitová: 8 °C)
Vítr: 1 m/s z(e) 240°
Počasí: zataženo
Dohlednost: 35 km
Zákl. oblačnosti: 8/8 1410 m
Vlhkost: 88%
Ústí nad Labem - Kočkov (Usti n/L) 23.09.2018 02:00 UTC Zobrazit data
Místo: Ústí nad Labem - Kočkov
Teplota: 11 °C (pocitová: 8.2 °C)
Vítr: 2 m/s z(e) 270°
Počasí: zataženo
Dohlednost: 35 km
Zákl. oblačnosti: 3/8 1350 m;5/8 1800 m
Vlhkost: 72%
Ústí nad Orlicí (Usti n/O) 23.09.2018 02:00 UTC Zobrazit data
Místo: Ústí nad Orlicí
Teplota: 11 °C (pocitová: 6.7 °C)
Vítr: 4 m/s z(e) 240°
Počasí: déšť
Dohlednost: 35 km
Zákl. oblačnosti: 8/8 1500 m
Vlhkost: 67%
Aalborg (EKYT) 20.09.2018 11:45 UTC Zobrazit METAR
EKYT 201145Z 24020KT 7000 -RA BKN025 BKN042 15/11 Q1009 TEMPO 6000 -RA
Aarhus (EKAH) 07.09.2018 11:50 UTC Zobrazit METAR
EKAH 071150Z 12008KT 080V150 5000 FEW010 SCT050 17/16 Q1009
Abu Dhabi (OMAA) 23.09.2018 02:00 UTC Zobrazit METAR
OMAA 230200Z 04006KT 4500 HZ NSC 29/27 Q1007 BECMG 14008KT 3000
Abuja (DNAA) 23.09.2018 02:00 UTC Zobrazit METAR
DNAA 230200Z 15002KT 9999 FEW007 24/21 Q1012 NOSIG
Accra (DGAA) 23.09.2018 02:00 UTC Zobrazit METAR
DGAA 230200Z 25011KT 9999 SCT028 25/23 Q1011 NOSIG
Addis Abeba (HAAB) 23.09.2018 01:00 UTC Zobrazit METAR
HAAB 230100Z 05006KT 9999 BKN025 16/07 Q1027
Agana (PGUM) 23.09.2018 01:54 UTC Zobrazit METAR
PGUM 230154Z 12007KT 10SM FEW042 BKN110 29/26 A2988 RMK AO2 RAB05E27 SLP108 P0000 T02890256
Ahe Island (NTHE) Zatím nenačteno  
Akureyri (BIAR) 23.09.2018 02:00 UTC Zobrazit METAR
BIAR 230200Z 19003KT 9999 OVC032 00/M01 Q1018
Almaty (UAAA) Zatím nenačteno  
Amman (OJAM) 23.09.2018 00:00 UTC Zobrazit METAR
OJAM 230000Z 00000KT 6000 NSC 19/16 Q1017 NOSIG
Amsterdam (EHAM) 23.09.2018 01:55 UTC Zobrazit METAR
EHAM 230155Z VRB02KT 5000 BR FEW005 BKN006 11/10 Q1014 BECMG 8000 SCT006
Antananarivo (FMMI) 23.09.2018 02:00 UTC Zobrazit METAR
FMMI 230200Z 11005KT 6000 SCT005 BKN020 12/12 Q1023 BECMG 3000 BR
1 2 3 ... 9 Další
Reklama

Počasí na Váš email

Emaily jsou bez reklamy a bez spamu



Odhlásit newsletter

Reklama


Lunární kalendář

  • 25.09.
  • 02.10.
  • 09.10.
  • 16.10.



Reklama


Reklama
Povinné ručení
Reklama



Reklama